sensor_id;sensor_type;location;lat;lon;timestamp;temperature;humidity
73955;DHT22;62306;52.516;13.290;2023-05-07T00:00:47;9.90;99.90
73955;DHT22;62306;52.516;13.290;2023-05-07T00:03:16;9.70;99.90
73955;DHT22;62306;52.516;13.290;2023-05-07T00:05:43;9.70;99.90
73955;DHT22;62306;52.516;13.290;2023-05-07T00:08:11;9.60;99.90
73955;DHT22;62306;52.516;13.290;2023-05-07T00:10:37;9.60;99.90
73955;DHT22;62306;52.516;13.290;2023-05-07T00:13:04;9.60;99.90
73955;DHT22;62306;52.516;13.290;2023-05-07T00:15:31;9.60;99.90
73955;DHT22;62306;52.516;13.290;2023-05-07T00:20:27;9.60;99.90
73955;DHT22;62306;52.516;13.290;2023-05-07T00:22:54;9.40;99.90
73955;DHT22;62306;52.516;13.290;2023-05-07T00:25:21;9.80;99.90
73955;DHT22;62306;52.516;13.290;2023-05-07T00:27:48;9.60;99.90
73955;DHT22;62306;52.516;13.290;2023-05-07T00:30:15;9.60;99.90
73955;DHT22;62306;52.516;13.290;2023-05-07T00:32:42;9.70;99.90
73955;DHT22;62306;52.516;13.290;2023-05-07T00:35:11;9.60;99.90
73955;DHT22;62306;52.516;13.290;2023-05-07T00:37:39;9.50;99.90
73955;DHT22;62306;52.516;13.290;2023-05-07T00:40:07;9.50;99.90
73955;DHT22;62306;52.516;13.290;2023-05-07T00:42:34;9.50;99.90
73955;DHT22;62306;52.516;13.290;2023-05-07T00:45:01;9.90;99.90
73955;DHT22;62306;52.516;13.290;2023-05-07T00:47:28;9.60;99.90
73955;DHT22;62306;52.516;13.290;2023-05-07T00:49:57;9.60;99.90
73955;DHT22;62306;52.516;13.290;2023-05-07T00:52:25;9.60;99.90
73955;DHT22;62306;52.516;13.290;2023-05-07T00:54:54;9.60;99.90
73955;DHT22;62306;52.516;13.290;2023-05-07T00:57:21;9.70;99.90
73955;DHT22;62306;52.516;13.290;2023-05-07T00:59:51;9.70;99.90
73955;DHT22;62306;52.516;13.290;2023-05-07T01:02:18;9.70;99.90
73955;DHT22;62306;52.516;13.290;2023-05-07T01:04:45;9.70;99.90
73955;DHT22;62306;52.516;13.290;2023-05-07T01:07:13;9.70;99.90
73955;DHT22;62306;52.516;13.290;2023-05-07T01:09:40;9.70;99.90
73955;DHT22;62306;52.516;13.290;2023-05-07T01:12:08;9.60;99.90
73955;DHT22;62306;52.516;13.290;2023-05-07T01:14:35;9.60;99.90
73955;DHT22;62306;52.516;13.290;2023-05-07T01:17:02;9.60;99.90
73955;DHT22;62306;52.516;13.290;2023-05-07T01:19:30;9.50;99.90
73955;DHT22;62306;52.516;13.290;2023-05-07T01:22:04;9.50;99.90
73955;DHT22;62306;52.516;13.290;2023-05-07T01:24:36;9.50;99.90
73955;DHT22;62306;52.516;13.290;2023-05-07T01:27:03;9.40;99.90
73955;DHT22;62306;52.516;13.290;2023-05-07T01:29:30;9.50;99.90
73955;DHT22;62306;52.516;13.290;2023-05-07T01:31:59;9.50;99.90
73955;DHT22;62306;52.516;13.290;2023-05-07T01:34:28;9.40;99.90
73955;DHT22;62306;52.516;13.290;2023-05-07T01:36:56;9.50;99.90
73955;DHT22;62306;52.516;13.290;2023-05-07T01:39:25;9.50;99.90
73955;DHT22;62306;52.516;13.290;2023-05-07T01:41:54;9.50;99.90
73955;DHT22;62306;52.516;13.290;2023-05-07T01:44:21;9.50;99.90
73955;DHT22;62306;52.516;13.290;2023-05-07T01:46:49;9.50;99.90
73955;DHT22;62306;52.516;13.290;2023-05-07T01:49:16;9.40;99.90
73955;DHT22;62306;52.516;13.290;2023-05-07T01:51:43;9.40;99.90
73955;DHT22;62306;52.516;13.290;2023-05-07T01:54:10;9.50;99.90
73955;DHT22;62306;52.516;13.290;2023-05-07T01:56:37;9.50;99.90
73955;DHT22;62306;52.516;13.290;2023-05-07T01:59:06;9.40;99.90
73955;DHT22;62306;52.516;13.290;2023-05-07T02:01:32;9.50;99.90
73955;DHT22;62306;52.516;13.290;2023-05-07T02:04:00;9.50;99.90
73955;DHT22;62306;52.516;13.290;2023-05-07T02:06:26;9.50;99.90
73955;DHT22;62306;52.516;13.290;2023-05-07T02:08:53;9.50;99.90
73955;DHT22;62306;52.516;13.290;2023-05-07T02:11:20;9.50;99.90
73955;DHT22;62306;52.516;13.290;2023-05-07T02:13:47;9.40;99.90
73955;DHT22;62306;52.516;13.290;2023-05-07T02:16:15;9.40;99.90
73955;DHT22;62306;52.516;13.290;2023-05-07T02:18:42;9.40;99.90
73955;DHT22;62306;52.516;13.290;2023-05-07T02:21:09;9.50;99.90
73955;DHT22;62306;52.516;13.290;2023-05-07T02:23:36;9.50;99.90
73955;DHT22;62306;52.516;13.290;2023-05-07T02:26:04;9.40;99.90
73955;DHT22;62306;52.516;13.290;2023-05-07T02:28:31;9.30;99.90
73955;DHT22;62306;52.516;13.290;2023-05-07T02:30:58;9.30;99.90
73955;DHT22;62306;52.516;13.290;2023-05-07T02:33:27;9.30;99.90
73955;DHT22;62306;52.516;13.290;2023-05-07T02:35:54;9.30;99.90
73955;DHT22;62306;52.516;13.290;2023-05-07T02:38:21;9.40;99.90
73955;DHT22;62306;52.516;13.290;2023-05-07T02:40:48;9.40;99.90
73955;DHT22;62306;52.516;13.290;2023-05-07T02:43:15;9.40;99.90
73955;DHT22;62306;52.516;13.290;2023-05-07T02:45:42;9.40;99.90
73955;DHT22;62306;52.516;13.290;2023-05-07T02:48:09;9.40;99.90
73955;DHT22;62306;52.516;13.290;2023-05-07T02:50:38;9.40;99.90
73955;DHT22;62306;52.516;13.290;2023-05-07T02:53:04;9.30;99.90
73955;DHT22;62306;52.516;13.290;2023-05-07T02:55:32;9.40;99.90
73955;DHT22;62306;52.516;13.290;2023-05-07T02:57:59;9.30;99.90
73955;DHT22;62306;52.516;13.290;2023-05-07T03:00:25;9.30;99.90
73955;DHT22;62306;52.516;13.290;2023-05-07T03:02:52;9.30;99.90
73955;DHT22;62306;52.516;13.290;2023-05-07T03:05:19;9.30;99.90
73955;DHT22;62306;52.516;13.290;2023-05-07T03:07:47;8.90;99.90
73955;DHT22;62306;52.516;13.290;2023-05-07T03:10:14;9.30;99.90
73955;DHT22;62306;52.516;13.290;2023-05-07T03:12:41;9.40;99.90
73955;DHT22;62306;52.516;13.290;2023-05-07T03:15:09;9.40;99.90
73955;DHT22;62306;52.516;13.290;2023-05-07T03:17:37;9.30;99.90
73955;DHT22;62306;52.516;13.290;2023-05-07T03:20:04;9.30;99.90
73955;DHT22;62306;52.516;13.290;2023-05-07T03:22:32;9.30;99.90
73955;DHT22;62306;52.516;13.290;2023-05-07T03:25:00;9.30;99.90
73955;DHT22;62306;52.516;13.290;2023-05-07T03:27:27;9.30;99.90
73955;DHT22;62306;52.516;13.290;2023-05-07T03:29:54;9.40;99.90
73955;DHT22;62306;52.516;13.290;2023-05-07T03:32:21;9.40;99.90
73955;DHT22;62306;52.516;13.290;2023-05-07T03:34:48;9.40;99.90
73955;DHT22;62306;52.516;13.290;2023-05-07T03:37:15;9.40;99.90
73955;DHT22;62306;52.516;13.290;2023-05-07T03:39:42;9.30;99.90
73955;DHT22;62306;52.516;13.290;2023-05-07T03:42:10;9.30;99.90
73955;DHT22;62306;52.516;13.290;2023-05-07T06:04:23;11.00;99.90
73955;DHT22;62306;52.516;13.290;2023-05-07T06:06:50;11.50;99.20
73955;DHT22;62306;52.516;13.290;2023-05-07T06:09:17;12.80;97.50
73955;DHT22;62306;52.516;13.290;2023-05-07T06:11:43;13.90;94.40
73955;DHT22;62306;52.516;13.290;2023-05-07T06:14:10;14.40;93.20
73955;DHT22;62306;52.516;13.290;2023-05-07T06:16:37;14.30;92.50
73955;DHT22;62306;52.516;13.290;2023-05-07T06:19:04;14.10;93.10
73955;DHT22;62306;52.516;13.290;2023-05-07T06:21:32;14.00;93.10
73955;DHT22;62306;52.516;13.290;2023-05-07T06:23:59;13.60;93.20
73955;DHT22;62306;52.516;13.290;2023-05-07T06:26:26;13.20;94.10
73955;DHT22;62306;52.516;13.290;2023-05-07T06:28:53;13.20;94.60
73955;DHT22;62306;52.516;13.290;2023-05-07T06:31:20;13.10;94.60
73955;DHT22;62306;52.516;13.290;2023-05-07T06:33:47;12.90;94.70
73955;DHT22;62306;52.516;13.290;2023-05-07T06:36:14;12.40;95.80
73955;DHT22;62306;52.516;13.290;2023-05-07T06:38:43;12.30;96.10
73955;DHT22;62306;52.516;13.290;2023-05-07T06:41:09;12.00;96.70
73955;DHT22;62306;52.516;13.290;2023-05-07T06:43:36;11.90;97.10
73955;DHT22;62306;52.516;13.290;2023-05-07T06:46:03;12.00;97.20
73955;DHT22;62306;52.516;13.290;2023-05-07T06:48:30;12.00;97.10
73955;DHT22;62306;52.516;13.290;2023-05-07T06:50:57;11.80;97.50
73955;DHT22;62306;52.516;13.290;2023-05-07T06:53:24;11.90;97.40
73955;DHT22;62306;52.516;13.290;2023-05-07T06:55:52;11.90;97.20
73955;DHT22;62306;52.516;13.290;2023-05-07T06:58:19;11.80;97.40
73955;DHT22;62306;52.516;13.290;2023-05-07T07:00:46;11.70;97.80
73955;DHT22;62306;52.516;13.290;2023-05-07T07:03:13;11.70;97.70
73955;DHT22;62306;52.516;13.290;2023-05-07T07:05:40;11.80;97.60
73955;DHT22;62306;52.516;13.290;2023-05-07T07:08:07;12.10;97.30
73955;DHT22;62306;52.516;13.290;2023-05-07T07:10:34;11.90;97.10
73955;DHT22;62306;52.516;13.290;2023-05-07T07:13:02;11.80;97.50
73955;DHT22;62306;52.516;13.290;2023-05-07T07:15:29;11.90;97.50
73955;DHT22;62306;52.516;13.290;2023-05-07T07:17:56;11.70;97.40
73955;DHT22;62306;52.516;13.290;2023-05-07T07:20:23;11.80;97.60
73955;DHT22;62306;52.516;13.290;2023-05-07T07:22:50;11.70;97.50
73955;DHT22;62306;52.516;13.290;2023-05-07T07:25:17;12.20;97.10
73955;DHT22;62306;52.516;13.290;2023-05-07T07:27:44;12.60;96.30
73955;DHT22;62306;52.516;13.290;2023-05-07T07:30:12;12.40;96.10
73955;DHT22;62306;52.516;13.290;2023-05-07T07:32:39;12.80;95.70
73955;DHT22;62306;52.516;13.290;2023-05-07T07:35:07;13.10;95.00
73955;DHT22;62306;52.516;13.290;2023-05-07T07:37:34;13.20;94.30
73955;DHT22;62306;52.516;13.290;2023-05-07T07:40:01;13.40;93.90
73955;DHT22;62306;52.516;13.290;2023-05-07T07:42:29;13.30;93.70
73955;DHT22;62306;52.516;13.290;2023-05-07T07:44:56;13.20;93.90
73955;DHT22;62306;52.516;13.290;2023-05-07T07:47:24;13.40;93.70
73955;DHT22;62306;52.516;13.290;2023-05-07T07:49:51;13.50;93.30
73955;DHT22;62306;52.516;13.290;2023-05-07T07:52:18;13.60;93.10
73955;DHT22;62306;52.516;13.290;2023-05-07T07:54:45;13.70;93.10
73955;DHT22;62306;52.516;13.290;2023-05-07T07:57:12;13.50;92.90
73955;DHT22;62306;52.516;13.290;2023-05-07T07:59:39;12.90;93.60
73955;DHT22;62306;52.516;13.290;2023-05-07T08:02:07;12.70;94.00
73955;DHT22;62306;52.516;13.290;2023-05-07T08:04:36;12.70;94.30
73955;DHT22;62306;52.516;13.290;2023-05-07T08:07:03;13.10;93.80
73955;DHT22;62306;52.516;13.290;2023-05-07T08:09:30;13.30;93.40
73955;DHT22;62306;52.516;13.290;2023-05-07T08:11:57;13.70;92.70
73955;DHT22;62306;52.516;13.290;2023-05-07T08:14:24;14.00;91.80
73955;DHT22;62306;52.516;13.290;2023-05-07T08:16:51;14.20;91.60
73955;DHT22;62306;52.516;13.290;2023-05-07T08:19:18;14.10;90.90
73955;DHT22;62306;52.516;13.290;2023-05-07T08:21:46;14.20;90.70
73955;DHT22;62306;52.516;13.290;2023-05-07T08:24:14;14.40;90.70
73955;DHT22;62306;52.516;13.290;2023-05-07T08:26:41;14.50;90.60
73955;DHT22;62306;52.516;13.290;2023-05-07T08:29:08;14.40;90.50
73955;DHT22;62306;52.516;13.290;2023-05-07T08:31:35;14.40;90.20
73955;DHT22;62306;52.516;13.290;2023-05-07T08:34:03;14.60;89.40
73955;DHT22;62306;52.516;13.290;2023-05-07T08:36:31;14.20;89.00
73955;DHT22;62306;52.516;13.290;2023-05-07T08:38:59;14.10;89.90
73955;DHT22;62306;52.516;13.290;2023-05-07T08:41:26;14.30;88.50
73955;DHT22;62306;52.516;13.290;2023-05-07T08:43:56;14.60;89.00
73955;DHT22;62306;52.516;13.290;2023-05-07T08:46:25;15.20;87.40
73955;DHT22;62306;52.516;13.290;2023-05-07T08:48:53;15.60;84.70
73955;DHT22;62306;52.516;13.290;2023-05-07T08:51:21;15.90;82.80
73955;DHT22;62306;52.516;13.290;2023-05-07T08:53:49;15.90;82.30
73955;DHT22;62306;52.516;13.290;2023-05-07T08:56:18;15.90;81.30
73955;DHT22;62306;52.516;13.290;2023-05-07T08:58:46;15.70;81.00
73955;DHT22;62306;52.516;13.290;2023-05-07T09:01:14;15.40;83.90
73955;DHT22;62306;52.516;13.290;2023-05-07T09:03:44;15.50;83.00
73955;DHT22;62306;52.516;13.290;2023-05-07T09:06:12;15.50;82.70
73955;DHT22;62306;52.516;13.290;2023-05-07T09:08:39;15.80;81.40
73955;DHT22;62306;52.516;13.290;2023-05-07T09:11:06;15.80;80.70
73955;DHT22;62306;52.516;13.290;2023-05-07T09:13:35;15.70;81.40
73955;DHT22;62306;52.516;13.290;2023-05-07T09:16:10;15.60;81.90
73955;DHT22;62306;52.516;13.290;2023-05-07T09:18:41;15.10;83.10
73955;DHT22;62306;52.516;13.290;2023-05-07T09:21:10;14.90;84.10
73955;DHT22;62306;52.516;13.290;2023-05-07T09:23:37;15.10;83.30
73955;DHT22;62306;52.516;13.290;2023-05-07T09:26:05;15.00;83.20
73955;DHT22;62306;52.516;13.290;2023-05-07T09:28:39;14.70;85.20
73955;DHT22;62306;52.516;13.290;2023-05-07T09:31:07;14.60;85.80
73955;DHT22;62306;52.516;13.290;2023-05-07T09:33:34;14.30;86.70
73955;DHT22;62306;52.516;13.290;2023-05-07T09:36:03;14.60;87.70
73955;DHT22;62306;52.516;13.290;2023-05-07T09:38:31;14.80;85.50
73955;DHT22;62306;52.516;13.290;2023-05-07T09:41:02;15.10;89.20
73955;DHT22;62306;52.516;13.290;2023-05-07T09:43:32;15.20;86.60
73955;DHT22;62306;52.516;13.290;2023-05-07T09:46:03;15.30;83.70
73955;DHT22;62306;52.516;13.290;2023-05-07T09:48:30;15.40;85.00
73955;DHT22;62306;52.516;13.290;2023-05-07T09:51:02;15.40;84.00
73955;DHT22;62306;52.516;13.290;2023-05-07T09:53:30;15.50;82.90
73955;DHT22;62306;52.516;13.290;2023-05-07T09:55:57;15.00;83.80
73955;DHT22;62306;52.516;13.290;2023-05-07T09:58:26;14.80;84.70
73955;DHT22;62306;52.516;13.290;2023-05-07T10:00:53;14.80;84.80
73955;DHT22;62306;52.516;13.290;2023-05-07T10:03:22;14.50;85.70
73955;DHT22;62306;52.516;13.290;2023-05-07T10:05:51;14.50;86.80
73955;DHT22;62306;52.516;13.290;2023-05-07T10:08:20;14.50;85.60
73955;DHT22;62306;52.516;13.290;2023-05-07T10:10:47;14.70;86.30
73955;DHT22;62306;52.516;13.290;2023-05-07T10:13:15;14.70;86.30
73955;DHT22;62306;52.516;13.290;2023-05-07T10:15:43;15.20;83.70
73955;DHT22;62306;52.516;13.290;2023-05-07T10:18:10;15.50;82.30
73955;DHT22;62306;52.516;13.290;2023-05-07T10:20:41;15.70;82.10
73955;DHT22;62306;52.516;13.290;2023-05-07T10:23:13;15.70;81.70
73955;DHT22;62306;52.516;13.290;2023-05-07T10:25:41;15.90;80.50
73955;DHT22;62306;52.516;13.290;2023-05-07T10:28:10;15.70;79.40
73955;DHT22;62306;52.516;13.290;2023-05-07T10:30:46;15.60;80.10
73955;DHT22;62306;52.516;13.290;2023-05-07T10:33:17;15.70;79.90
73955;DHT22;62306;52.516;13.290;2023-05-07T10:35:47;15.60;79.60
73955;DHT22;62306;52.516;13.290;2023-05-07T10:38:15;15.60;79.40
73955;DHT22;62306;52.516;13.290;2023-05-07T10:40:42;15.50;78.90
73955;DHT22;62306;52.516;13.290;2023-05-07T10:43:10;15.50;79.90
73955;DHT22;62306;52.516;13.290;2023-05-07T10:45:36;15.60;79.30
73955;DHT22;62306;52.516;13.290;2023-05-07T10:48:11;15.70;78.30
73955;DHT22;62306;52.516;13.290;2023-05-07T10:50:39;15.50;78.60
73955;DHT22;62306;52.516;13.290;2023-05-07T10:53:24;15.50;78.70
73955;DHT22;62306;52.516;13.290;2023-05-07T10:56:25;15.50;77.60
73955;DHT22;62306;52.516;13.290;2023-05-07T10:58:54;15.50;78.10
73955;DHT22;62306;52.516;13.290;2023-05-07T11:01:49;15.40;78.10
73955;DHT22;62306;52.516;13.290;2023-05-07T11:04:17;15.70;78.10
73955;DHT22;62306;52.516;13.290;2023-05-07T11:10:12;16.30;75.80
73955;DHT22;62306;52.516;13.290;2023-05-07T11:12:55;16.40;74.30
73955;DHT22;62306;52.516;13.290;2023-05-07T11:15:36;16.50;73.60
73955;DHT22;62306;52.516;13.290;2023-05-07T11:18:04;16.60;73.00
73955;DHT22;62306;52.516;13.290;2023-05-07T11:21:01;16.80;72.30
73955;DHT22;62306;52.516;13.290;2023-05-07T11:26:47;15.90;73.60
73955;DHT22;62306;52.516;13.290;2023-05-07T11:29:16;16.20;74.00
73955;DHT22;62306;52.516;13.290;2023-05-07T11:31:43;16.50;71.70
73955;DHT22;62306;52.516;13.290;2023-05-07T11:34:11;16.50;71.90
73955;DHT22;62306;52.516;13.290;2023-05-07T11:36:42;16.60;71.10
73955;DHT22;62306;52.516;13.290;2023-05-07T11:39:26;16.70;70.00
73955;DHT22;62306;52.516;13.290;2023-05-07T11:41:54;16.90;69.70
73955;DHT22;62306;52.516;13.290;2023-05-07T11:44:21;16.70;69.40
73955;DHT22;62306;52.516;13.290;2023-05-07T11:46:48;16.80;69.30
73955;DHT22;62306;52.516;13.290;2023-05-07T11:49:15;17.00;68.30
73955;DHT22;62306;52.516;13.290;2023-05-07T11:51:42;17.10;66.70
73955;DHT22;62306;52.516;13.290;2023-05-07T11:54:15;16.60;69.60
73955;DHT22;62306;52.516;13.290;2023-05-07T11:56:44;16.50;71.60
73955;DHT22;62306;52.516;13.290;2023-05-07T11:59:17;16.70;70.50
73955;DHT22;62306;52.516;13.290;2023-05-07T12:01:46;16.60;70.60
73955;DHT22;62306;52.516;13.290;2023-05-07T12:04:13;16.60;70.10
73955;DHT22;62306;52.516;13.290;2023-05-07T12:06:40;16.50;69.70
73955;DHT22;62306;52.516;13.290;2023-05-07T12:09:07;16.20;70.50
73955;DHT22;62306;52.516;13.290;2023-05-07T12:11:37;16.50;71.10
73955;DHT22;62306;52.516;13.290;2023-05-07T12:14:05;16.70;69.80
73955;DHT22;62306;52.516;13.290;2023-05-07T12:16:33;16.40;70.20
73955;DHT22;62306;52.516;13.290;2023-05-07T12:19:01;16.50;71.40
73955;DHT22;62306;52.516;13.290;2023-05-07T12:21:28;16.90;70.20
73955;DHT22;62306;52.516;13.290;2023-05-07T12:23:56;16.90;69.90
73955;DHT22;62306;52.516;13.290;2023-05-07T12:26:23;17.20;69.00
73955;DHT22;62306;52.516;13.290;2023-05-07T12:28:50;17.70;67.60
73955;DHT22;62306;52.516;13.290;2023-05-07T12:31:17;17.50;65.80
73955;DHT22;62306;52.516;13.290;2023-05-07T12:33:46;17.30;66.60
73955;DHT22;62306;52.516;13.290;2023-05-07T12:36:13;16.70;68.00
73955;DHT22;62306;52.516;13.290;2023-05-07T12:38:40;16.30;68.10
73955;DHT22;62306;52.516;13.290;2023-05-07T12:41:08;16.20;68.50
73955;DHT22;62306;52.516;13.290;2023-05-07T12:43:36;16.30;68.70
73955;DHT22;62306;52.516;13.290;2023-05-07T12:46:05;16.50;68.40
73955;DHT22;62306;52.516;13.290;2023-05-07T12:48:32;16.80;66.40
73955;DHT22;62306;52.516;13.290;2023-05-07T12:51:01;17.00;66.00
73955;DHT22;62306;52.516;13.290;2023-05-07T12:53:29;17.40;65.20
73955;DHT22;62306;52.516;13.290;2023-05-07T12:55:58;17.40;65.40
73955;DHT22;62306;52.516;13.290;2023-05-07T12:58:26;17.80;64.70
73955;DHT22;62306;52.516;13.290;2023-05-07T13:00:54;17.80;63.20
73955;DHT22;62306;52.516;13.290;2023-05-07T13:03:25;17.90;62.80
73955;DHT22;62306;52.516;13.290;2023-05-07T13:05:54;18.10;63.30
73955;DHT22;62306;52.516;13.290;2023-05-07T13:08:27;18.20;62.00
73955;DHT22;62306;52.516;13.290;2023-05-07T13:10:54;18.50;61.40
73955;DHT22;62306;52.516;13.290;2023-05-07T13:13:22;18.60;60.30
73955;DHT22;62306;52.516;13.290;2023-05-07T13:15:49;18.00;61.60
73955;DHT22;62306;52.516;13.290;2023-05-07T13:18:15;17.60;62.10
73955;DHT22;62306;52.516;13.290;2023-05-07T13:20:42;17.60;63.10
73955;DHT22;62306;52.516;13.290;2023-05-07T13:23:09;17.80;62.40
73955;DHT22;62306;52.516;13.290;2023-05-07T13:25:37;18.10;62.00
73955;DHT22;62306;52.516;13.290;2023-05-07T13:28:04;18.10;61.90
73955;DHT22;62306;52.516;13.290;2023-05-07T13:30:31;17.90;61.40
73955;DHT22;62306;52.516;13.290;2023-05-07T13:32:58;17.70;61.30
73955;DHT22;62306;52.516;13.290;2023-05-07T13:35:25;17.40;62.10
73955;DHT22;62306;52.516;13.290;2023-05-07T13:37:52;17.50;61.30
73955;DHT22;62306;52.516;13.290;2023-05-07T13:40:20;17.40;62.00
73955;DHT22;62306;52.516;13.290;2023-05-07T13:42:48;17.20;62.60
73955;DHT22;62306;52.516;13.290;2023-05-07T13:45:16;17.20;62.70
73955;DHT22;62306;52.516;13.290;2023-05-07T13:47:43;17.60;62.30
73955;DHT22;62306;52.516;13.290;2023-05-07T13:50:10;17.20;61.40
73955;DHT22;62306;52.516;13.290;2023-05-07T13:52:40;17.50;61.10
73955;DHT22;62306;52.516;13.290;2023-05-07T13:55:09;17.90;60.60
73955;DHT22;62306;52.516;13.290;2023-05-07T13:57:36;18.00;59.90
73955;DHT22;62306;52.516;13.290;2023-05-07T14:00:06;18.30;58.60
73955;DHT22;62306;52.516;13.290;2023-05-07T14:02:33;18.00;58.40
73955;DHT22;62306;52.516;13.290;2023-05-07T15:04:47;17.50;58.70
73955;DHT22;62306;52.516;13.290;2023-05-07T15:07:15;17.70;59.10
73955;DHT22;62306;52.516;13.290;2023-05-07T15:09:43;18.00;58.30
73955;DHT22;62306;52.516;13.290;2023-05-07T15:12:10;18.10;57.70
73955;DHT22;62306;52.516;13.290;2023-05-07T15:14:37;18.30;56.40
73955;DHT22;62306;52.516;13.290;2023-05-07T15:17:04;18.00;57.10
73955;DHT22;62306;52.516;13.290;2023-05-07T15:19:31;17.60;58.10
73955;DHT22;62306;52.516;13.290;2023-05-07T15:22:00;17.20;59.40
73955;DHT22;62306;52.516;13.290;2023-05-07T15:24:28;16.80;59.80
73955;DHT22;62306;52.516;13.290;2023-05-07T15:26:55;16.70;60.40
73955;DHT22;62306;52.516;13.290;2023-05-07T15:29:22;16.70;60.80
73955;DHT22;62306;52.516;13.290;2023-05-07T15:31:49;16.80;60.90
73955;DHT22;62306;52.516;13.290;2023-05-07T15:34:15;16.80;61.60
73955;DHT22;62306;52.516;13.290;2023-05-07T15:36:43;17.00;61.20
73955;DHT22;62306;52.516;13.290;2023-05-07T15:39:11;17.00;61.20
73955;DHT22;62306;52.516;13.290;2023-05-07T15:41:38;16.80;61.20
73955;DHT22;62306;52.516;13.290;2023-05-07T15:44:05;16.50;62.40
73955;DHT22;62306;52.516;13.290;2023-05-07T15:46:32;16.50;62.80
73955;DHT22;62306;52.516;13.290;2023-05-07T15:49:01;16.50;62.70
73955;DHT22;62306;52.516;13.290;2023-05-07T15:51:29;16.50;62.80
73955;DHT22;62306;52.516;13.290;2023-05-07T15:53:56;16.60;62.40
73955;DHT22;62306;52.516;13.290;2023-05-07T15:56:24;16.70;62.00
73955;DHT22;62306;52.516;13.290;2023-05-07T15:58:51;16.80;61.70
73955;DHT22;62306;52.516;13.290;2023-05-07T16:01:19;16.80;62.10
73955;DHT22;62306;52.516;13.290;2023-05-07T16:03:46;16.60;62.00
73955;DHT22;62306;52.516;13.290;2023-05-07T16:06:13;16.20;63.10
73955;DHT22;62306;52.516;13.290;2023-05-07T16:08:40;16.10;63.40
73955;DHT22;62306;52.516;13.290;2023-05-07T16:11:08;16.00;63.70
73955;DHT22;62306;52.516;13.290;2023-05-07T16:13:37;16.00;63.50
73955;DHT22;62306;52.516;13.290;2023-05-07T16:16:04;15.90;63.50
73955;DHT22;62306;52.516;13.290;2023-05-07T16:18:31;15.90;63.20
73955;DHT22;62306;52.516;13.290;2023-05-07T16:21:00;15.90;62.80
73955;DHT22;62306;52.516;13.290;2023-05-07T16:23:27;15.80;63.40
73955;DHT22;62306;52.516;13.290;2023-05-07T16:25:54;15.70;64.00
73955;DHT22;62306;52.516;13.290;2023-05-07T16:28:21;15.70;63.70
73955;DHT22;62306;52.516;13.290;2023-05-07T16:30:49;15.70;63.80
73955;DHT22;62306;52.516;13.290;2023-05-07T16:33:16;15.70;63.60
73955;DHT22;62306;52.516;13.290;2023-05-07T16:35:43;15.70;63.90
73955;DHT22;62306;52.516;13.290;2023-05-07T16:38:12;15.80;64.30
73955;DHT22;62306;52.516;13.290;2023-05-07T16:40:39;15.70;64.60
73955;DHT22;62306;52.516;13.290;2023-05-07T16:43:06;15.70;64.80
73955;DHT22;62306;52.516;13.290;2023-05-07T16:45:33;15.80;65.20
73955;DHT22;62306;52.516;13.290;2023-05-07T16:48:02;15.90;64.50
73955;DHT22;62306;52.516;13.290;2023-05-07T16:50:29;16.00;63.70
73955;DHT22;62306;52.516;13.290;2023-05-07T16:52:56;16.10;64.30
73955;DHT22;62306;52.516;13.290;2023-05-07T16:55:23;15.90;64.40
73955;DHT22;62306;52.516;13.290;2023-05-07T16:57:50;16.10;64.40
73955;DHT22;62306;52.516;13.290;2023-05-07T17:00:17;16.20;63.80
73955;DHT22;62306;52.516;13.290;2023-05-07T17:02:44;16.40;63.90
73955;DHT22;62306;52.516;13.290;2023-05-07T17:05:12;16.20;63.70
73955;DHT22;62306;52.516;13.290;2023-05-07T17:07:39;16.00;63.90
73955;DHT22;62306;52.516;13.290;2023-05-07T17:10:07;15.60;64.40
73955;DHT22;62306;52.516;13.290;2023-05-07T17:12:34;15.40;65.00
73955;DHT22;62306;52.516;13.290;2023-05-07T17:15:02;15.30;65.40
73955;DHT22;62306;52.516;13.290;2023-05-07T17:17:29;15.20;66.60
73955;DHT22;62306;52.516;13.290;2023-05-07T17:19:57;15.10;66.00
73955;DHT22;62306;52.516;13.290;2023-05-07T17:22:26;15.10;66.20
73955;DHT22;62306;52.516;13.290;2023-05-07T17:24:53;15.10;65.60
73955;DHT22;62306;52.516;13.290;2023-05-07T17:27:20;15.20;65.40
73955;DHT22;62306;52.516;13.290;2023-05-07T17:29:47;15.30;65.30
73955;DHT22;62306;52.516;13.290;2023-05-07T17:32:14;15.40;65.40
73955;DHT22;62306;52.516;13.290;2023-05-07T17:34:41;15.40;65.40
73955;DHT22;62306;52.516;13.290;2023-05-07T17:37:08;15.20;65.90
73955;DHT22;62306;52.516;13.290;2023-05-07T17:39:36;15.10;66.40
73955;DHT22;62306;52.516;13.290;2023-05-07T17:42:03;15.20;66.10
73955;DHT22;62306;52.516;13.290;2023-05-07T17:44:30;15.20;65.60
73955;DHT22;62306;52.516;13.290;2023-05-07T17:46:58;15.20;66.00
73955;DHT22;62306;52.516;13.290;2023-05-07T17:49:25;15.20;66.20
73955;DHT22;62306;52.516;13.290;2023-05-07T17:51:52;15.10;65.70
73955;DHT22;62306;52.516;13.290;2023-05-07T17:54:19;15.00;65.90
73955;DHT22;62306;52.516;13.290;2023-05-07T17:56:47;14.90;66.40
73955;DHT22;62306;52.516;13.290;2023-05-07T17:59:14;14.80;66.70
73955;DHT22;62306;52.516;13.290;2023-05-07T18:01:41;14.70;66.80
73955;DHT22;62306;52.516;13.290;2023-05-07T18:04:08;14.70;67.20
73955;DHT22;62306;52.516;13.290;2023-05-07T18:06:35;14.60;67.70
73955;DHT22;62306;52.516;13.290;2023-05-07T18:09:03;14.50;68.00
73955;DHT22;62306;52.516;13.290;2023-05-07T18:11:30;14.50;67.90
73955;DHT22;62306;52.516;13.290;2023-05-07T18:13:59;14.50;68.40
73955;DHT22;62306;52.516;13.290;2023-05-07T18:16:26;14.30;69.20
73955;DHT22;62306;52.516;13.290;2023-05-07T18:18:53;14.20;69.20
73955;DHT22;62306;52.516;13.290;2023-05-07T18:21:20;14.10;69.10
73955;DHT22;62306;52.516;13.290;2023-05-07T18:23:48;14.00;69.60
73955;DHT22;62306;52.516;13.290;2023-05-07T18:26:16;14.00;69.60
73955;DHT22;62306;52.516;13.290;2023-05-07T18:28:43;14.00;69.30
73955;DHT22;62306;52.516;13.290;2023-05-07T18:31:12;13.90;70.30
73955;DHT22;62306;52.516;13.290;2023-05-07T18:33:38;13.90;70.30
73955;DHT22;62306;52.516;13.290;2023-05-07T18:36:05;13.70;70.90
73955;DHT22;62306;52.516;13.290;2023-05-07T18:38:32;13.60;71.30
73955;DHT22;62306;52.516;13.290;2023-05-07T18:41:00;13.70;71.30
73955;DHT22;62306;52.516;13.290;2023-05-07T18:43:27;13.70;71.50
73955;DHT22;62306;52.516;13.290;2023-05-07T18:45:54;13.70;71.60
73955;DHT22;62306;52.516;13.290;2023-05-07T18:48:22;13.70;71.70
73955;DHT22;62306;52.516;13.290;2023-05-07T18:50:49;13.80;72.20
73955;DHT22;62306;52.516;13.290;2023-05-07T18:53:17;13.80;72.60